sensor_id;sensor_type;location;lat;lon;timestamp;pressure;altitude;pressure_sealevel;temperature;humidity
73422;BME280;61637;47.760;-122.022;2023-02-13T00:00:01;101930.339;;;9.2;unknown
73422;BME280;61637;47.760;-122.022;2023-02-13T00:02:01;101930.339;;;9.2;unknown
73422;BME280;61637;47.760;-122.022;2023-02-13T00:04:01;101930.339;;;9.2;unknown
73422;BME280;61637;47.760;-122.022;2023-02-13T00:06:01;101930.339;;;9.2;unknown
73422;BME280;61637;47.760;-122.022;2023-02-13T00:08:01;101930.339;;;9.1;unknown
73422;BME280;61637;47.760;-122.022;2023-02-13T00:10:01;101930.339;;;9.1;unknown
73422;BME280;61637;47.760;-122.022;2023-02-13T00:12:01;101930.339;;;9.1;unknown
73422;BME280;61637;47.760;-122.022;2023-02-13T00:14:01;101930.339;;;9.1;unknown
73422;BME280;61637;47.760;-122.022;2023-02-13T00:16:01;101930.339;;;9.0;unknown
73422;BME280;61637;47.760;-122.022;2023-02-13T00:18:01;101930.339;;;8.9;unknown
73422;BME280;61637;47.760;-122.022;2023-02-13T00:20:01;101930.339;;;8.9;unknown
73422;BME280;61637;47.760;-122.022;2023-02-13T00:22:01;101930.339;;;8.9;unknown
73422;BME280;61637;47.760;-122.022;2023-02-13T00:24:01;101930.339;;;8.9;unknown
73422;BME280;61637;47.760;-122.022;2023-02-13T00:26:03;101930.339;;;8.9;unknown
73422;BME280;61637;47.760;-122.022;2023-02-13T00:28:01;101930.339;;;8.8;unknown
73422;BME280;61637;47.760;-122.022;2023-02-13T00:30:01;101930.339;;;8.8;unknown
73422;BME280;61637;47.760;-122.022;2023-02-13T00:32:01;101930.339;;;8.8;unknown
73422;BME280;61637;47.760;-122.022;2023-02-13T00:34:01;101930.339;;;8.8;unknown
73422;BME280;61637;47.760;-122.022;2023-02-13T00:36:01;101930.339;;;8.7;unknown
73422;BME280;61637;47.760;-122.022;2023-02-13T00:38:01;101930.339;;;8.7;unknown
73422;BME280;61637;47.760;-122.022;2023-02-13T00:40:01;101930.339;;;8.7;unknown
73422;BME280;61637;47.760;-122.022;2023-02-13T00:42:01;101930.339;;;8.7;unknown
73422;BME280;61637;47.760;-122.022;2023-02-13T00:44:01;101930.339;;;8.7;unknown
73422;BME280;61637;47.760;-122.022;2023-02-13T00:46:01;101930.339;;;8.7;unknown
73422;BME280;61637;47.760;-122.022;2023-02-13T00:48:01;101930.339;;;8.7;unknown
73422;BME280;61637;47.760;-122.022;2023-02-13T00:50:01;101930.339;;;8.8;unknown
73422;BME280;61637;47.760;-122.022;2023-02-13T00:52:01;101930.339;;;8.8;unknown
73422;BME280;61637;47.760;-122.022;2023-02-13T00:54:01;101930.339;;;8.8;unknown
73422;BME280;61637;47.760;-122.022;2023-02-13T00:56:01;101930.339;;;8.8;unknown
73422;BME280;61637;47.760;-122.022;2023-02-13T00:58:01;101930.339;;;8.7;unknown
73422;BME280;61637;47.760;-122.022;2023-02-13T01:00:01;101930.339;;;8.7;unknown
73422;BME280;61637;47.760;-122.022;2023-02-13T01:02:01;101930.339;;;8.7;unknown
73422;BME280;61637;47.760;-122.022;2023-02-13T01:04:01;101930.339;;;8.7;unknown
73422;BME280;61637;47.760;-122.022;2023-02-13T01:06:01;101930.339;;;8.6;unknown
73422;BME280;61637;47.760;-122.022;2023-02-13T01:08:01;101930.339;;;8.6;unknown
73422;BME280;61637;47.760;-122.022;2023-02-13T01:10:01;101930.339;;;8.7;unknown
73422;BME280;61637;47.760;-122.022;2023-02-13T01:12:01;101930.339;;;8.7;unknown
73422;BME280;61637;47.760;-122.022;2023-02-13T01:14:01;101930.339;;;8.7;unknown
73422;BME280;61637;47.760;-122.022;2023-02-13T01:16:01;101930.339;;;8.6;unknown
73422;BME280;61637;47.760;-122.022;2023-02-13T01:18:01;101930.339;;;8.6;unknown
73422;BME280;61637;47.760;-122.022;2023-02-13T01:20:01;101930.339;;;8.6;unknown
73422;BME280;61637;47.760;-122.022;2023-02-13T01:22:01;101930.339;;;8.7;unknown
73422;BME280;61637;47.760;-122.022;2023-02-13T01:24:02;101930.339;;;8.6;unknown
73422;BME280;61637;47.760;-122.022;2023-02-13T01:26:02;101930.339;;;8.5;unknown
73422;BME280;61637;47.760;-122.022;2023-02-13T01:28:01;101930.339;;;8.4;unknown
73422;BME280;61637;47.760;-122.022;2023-02-13T01:30:01;101930.339;;;8.4;unknown
73422;BME280;61637;47.760;-122.022;2023-02-13T01:32:01;101930.339;;;8.3;unknown
73422;BME280;61637;47.760;-122.022;2023-02-13T01:34:01;101930.339;;;8.3;unknown
73422;BME280;61637;47.760;-122.022;2023-02-13T01:36:04;101930.339;;;8.2;unknown
73422;BME280;61637;47.760;-122.022;2023-02-13T01:38:01;101930.339;;;8.2;unknown
73422;BME280;61637;47.760;-122.022;2023-02-13T01:40:01;101591.7;;;8.2;unknown
73422;BME280;61637;47.760;-122.022;2023-02-13T01:42:01;101930.339;;;8.2;unknown
73422;BME280;61637;47.760;-122.022;2023-02-13T01:44:01;101930.339;;;8.2;unknown
73422;BME280;61637;47.760;-122.022;2023-02-13T01:46:01;101591.7;;;8.3;unknown
73422;BME280;61637;47.760;-122.022;2023-02-13T01:48:01;101591.7;;;8.3;unknown
73422;BME280;61637;47.760;-122.022;2023-02-13T01:50:04;101591.7;;;8.3;unknown
73422;BME280;61637;47.760;-122.022;2023-02-13T01:52:01;101930.339;;;8.3;unknown
73422;BME280;61637;47.760;-122.022;2023-02-13T01:54:02;101591.7;;;8.3;unknown
73422;BME280;61637;47.760;-122.022;2023-02-13T01:56:02;101591.7;;;8.3;unknown
73422;BME280;61637;47.760;-122.022;2023-02-13T01:58:02;101591.7;;;8.3;unknown
73422;BME280;61637;47.760;-122.022;2023-02-13T02:00:02;101591.7;;;8.3;unknown
73422;BME280;61637;47.760;-122.022;2023-02-13T02:02:01;101591.7;;;8.4;unknown
73422;BME280;61637;47.760;-122.022;2023-02-13T02:04:04;101591.7;;;8.5;unknown
73422;BME280;61637;47.760;-122.022;2023-02-13T02:06:01;101591.7;;;8.4;unknown
73422;BME280;61637;47.760;-122.022;2023-02-13T02:08:01;101591.7;;;8.5;unknown
73422;BME280;61637;47.760;-122.022;2023-02-13T02:10:02;101591.7;;;8.6;unknown
73422;BME280;61637;47.760;-122.022;2023-02-13T02:12:01;101591.7;;;8.7;unknown
73422;BME280;61637;47.760;-122.022;2023-02-13T02:14:01;101591.7;;;8.7;unknown
73422;BME280;61637;47.760;-122.022;2023-02-13T02:16:01;101591.7;;;8.8;unknown
73422;BME280;61637;47.760;-122.022;2023-02-13T02:18:01;101591.7;;;8.9;unknown
73422;BME280;61637;47.760;-122.022;2023-02-13T02:20:05;101591.7;;;8.9;unknown
73422;BME280;61637;47.760;-122.022;2023-02-13T02:22:07;101591.7;;;8.9;unknown
73422;BME280;61637;47.760;-122.022;2023-02-13T02:24:07;101591.7;;;8.9;unknown
73422;BME280;61637;47.760;-122.022;2023-02-13T02:28:09;101591.7;;;8.8;unknown
73422;BME280;61637;47.760;-122.022;2023-02-13T02:30:09;101591.7;;;8.8;unknown
73422;BME280;61637;47.760;-122.022;2023-02-13T02:34:05;101591.7;;;8.7;unknown
73422;BME280;61637;47.760;-122.022;2023-02-13T02:36:04;101591.7;;;8.7;unknown
73422;BME280;61637;47.760;-122.022;2023-02-13T02:38:04;101591.7;;;8.7;unknown
73422;BME280;61637;47.760;-122.022;2023-02-13T02:40:04;101591.7;;;8.6;unknown
73422;BME280;61637;47.760;-122.022;2023-02-13T02:42:04;101591.7;;;8.6;unknown
73422;BME280;61637;47.760;-122.022;2023-02-13T02:44:03;101591.7;;;8.4;unknown
73422;BME280;61637;47.760;-122.022;2023-02-13T02:46:02;101591.7;;;8.4;unknown
73422;BME280;61637;47.760;-122.022;2023-02-13T02:48:02;101591.7;;;8.4;unknown
73422;BME280;61637;47.760;-122.022;2023-02-13T02:52:02;101591.7;;;8.4;unknown
73422;BME280;61637;47.760;-122.022;2023-02-13T02:54:02;101591.7;;;8.4;unknown
73422;BME280;61637;47.760;-122.022;2023-02-13T02:56:01;101591.7;;;8.4;unknown
73422;BME280;61637;47.760;-122.022;2023-02-13T02:58:02;101591.7;;;8.5;unknown
73422;BME280;61637;47.760;-122.022;2023-02-13T03:00:01;101591.7;;;8.5;unknown
73422;BME280;61637;47.760;-122.022;2023-02-13T03:02:01;101591.7;;;8.6;unknown
73422;BME280;61637;47.760;-122.022;2023-02-13T03:04:01;101591.7;;;8.7;unknown
73422;BME280;61637;47.760;-122.022;2023-02-13T03:06:01;101591.7;;;8.9;unknown
73422;BME280;61637;47.760;-122.022;2023-02-13T03:08:01;101591.7;;;8.9;unknown
73422;BME280;61637;47.760;-122.022;2023-02-13T03:10:03;101591.7;;;9.1;unknown
73422;BME280;61637;47.760;-122.022;2023-02-13T03:12:01;101591.7;;;9.2;unknown
73422;BME280;61637;47.760;-122.022;2023-02-13T03:14:01;101591.7;;;9.3;unknown
73422;BME280;61637;47.760;-122.022;2023-02-13T03:16:01;101591.7;;;9.3;unknown
73422;BME280;61637;47.760;-122.022;2023-02-13T03:18:01;101591.7;;;9.3;unknown
73422;BME280;61637;47.760;-122.022;2023-02-13T03:20:05;101591.7;;;9.3;unknown
73422;BME280;61637;47.760;-122.022;2023-02-13T03:22:02;101591.7;;;9.3;unknown
73422;BME280;61637;47.760;-122.022;2023-02-13T03:24:02;101591.7;;;9.2;unknown
73422;BME280;61637;47.760;-122.022;2023-02-13T03:26:06;101591.7;;;9.2;unknown
73422;BME280;61637;47.760;-122.022;2023-02-13T03:28:02;101591.7;;;9.2;unknown
73422;BME280;61637;47.760;-122.022;2023-02-13T03:30:02;101591.7;;;9.1;unknown
73422;BME280;61637;47.760;-122.022;2023-02-13T03:32:03;101591.7;;;9.1;unknown
73422;BME280;61637;47.760;-122.022;2023-02-13T03:34:02;101591.7;;;9.0;unknown
73422;BME280;61637;47.760;-122.022;2023-02-13T03:36:02;101591.7;;;8.9;unknown
73422;BME280;61637;47.760;-122.022;2023-02-13T03:38:02;101591.7;;;8.9;unknown
73422;BME280;61637;47.760;-122.022;2023-02-13T03:40:01;101591.7;;;8.9;unknown
73422;BME280;61637;47.760;-122.022;2023-02-13T03:42:02;101591.7;;;8.8;unknown
73422;BME280;61637;47.760;-122.022;2023-02-13T03:44:03;101591.7;;;8.9;unknown
73422;BME280;61637;47.760;-122.022;2023-02-13T03:46:01;101591.7;;;8.8;unknown
73422;BME280;61637;47.760;-122.022;2023-02-13T03:48:01;101591.7;;;8.8;unknown
73422;BME280;61637;47.760;-122.022;2023-02-13T03:50:01;101591.7;;;8.8;unknown
73422;BME280;61637;47.760;-122.022;2023-02-13T03:52:01;101591.7;;;8.8;unknown
73422;BME280;61637;47.760;-122.022;2023-02-13T03:54:02;101591.7;;;8.8;unknown
73422;BME280;61637;47.760;-122.022;2023-02-13T03:56:01;101591.7;;;8.7;unknown
73422;BME280;61637;47.760;-122.022;2023-02-13T03:58:02;101591.7;;;8.7;unknown
73422;BME280;61637;47.760;-122.022;2023-02-13T04:00:01;101591.7;;;8.7;unknown
73422;BME280;61637;47.760;-122.022;2023-02-13T04:02:02;101591.7;;;8.6;unknown
73422;BME280;61637;47.760;-122.022;2023-02-13T04:04:02;101591.7;;;8.6;unknown
73422;BME280;61637;47.760;-122.022;2023-02-13T04:06:01;101591.7;;;8.7;unknown
73422;BME280;61637;47.760;-122.022;2023-02-13T04:08:01;101591.7;;;8.7;unknown
73422;BME280;61637;47.760;-122.022;2023-02-13T04:10:02;101591.7;;;8.7;unknown
73422;BME280;61637;47.760;-122.022;2023-02-13T04:12:03;101591.7;;;8.7;unknown
73422;BME280;61637;47.760;-122.022;2023-02-13T04:14:02;101591.7;;;8.7;unknown
73422;BME280;61637;47.760;-122.022;2023-02-13T04:16:02;101591.7;;;8.7;unknown
73422;BME280;61637;47.760;-122.022;2023-02-13T04:18:02;101591.7;;;8.7;unknown
73422;BME280;61637;47.760;-122.022;2023-02-13T04:20:01;101591.7;;;8.7;unknown
73422;BME280;61637;47.760;-122.022;2023-02-13T04:22:01;101591.7;;;8.7;unknown
73422;BME280;61637;47.760;-122.022;2023-02-13T04:24:01;101591.7;;;8.6;unknown
73422;BME280;61637;47.760;-122.022;2023-02-13T04:26:01;101591.7;;;8.6;unknown
73422;BME280;61637;47.760;-122.022;2023-02-13T04:28:01;101591.7;;;8.4;unknown
73422;BME280;61637;47.760;-122.022;2023-02-13T04:30:01;101591.7;;;8.3;unknown
73422;BME280;61637;47.760;-122.022;2023-02-13T04:32:01;101591.7;;;8.2;unknown
73422;BME280;61637;47.760;-122.022;2023-02-13T04:34:01;101591.7;;;8.0;unknown
73422;BME280;61637;47.760;-122.022;2023-02-13T04:36:01;101591.7;;;7.9;unknown
73422;BME280;61637;47.760;-122.022;2023-02-13T04:38:01;101591.7;;;7.8;unknown
73422;BME280;61637;47.760;-122.022;2023-02-13T04:40:01;101591.7;;;7.7;unknown
73422;BME280;61637;47.760;-122.022;2023-02-13T04:42:01;101591.7;;;7.7;unknown
73422;BME280;61637;47.760;-122.022;2023-02-13T04:44:01;101591.7;;;7.7;unknown
73422;BME280;61637;47.760;-122.022;2023-02-13T04:46:01;101591.7;;;7.7;unknown
73422;BME280;61637;47.760;-122.022;2023-02-13T04:48:01;101591.7;;;7.7;unknown
73422;BME280;61637;47.760;-122.022;2023-02-13T04:50:01;101591.7;;;7.7;unknown
73422;BME280;61637;47.760;-122.022;2023-02-13T04:52:01;101591.7;;;7.7;unknown
73422;BME280;61637;47.760;-122.022;2023-02-13T04:54:01;101591.7;;;7.7;unknown
73422;BME280;61637;47.760;-122.022;2023-02-13T04:56:01;101591.7;;;7.7;unknown
73422;BME280;61637;47.760;-122.022;2023-02-13T04:58:01;101591.7;;;7.7;unknown
73422;BME280;61637;47.760;-122.022;2023-02-13T05:00:01;101591.7;;;7.8;unknown
73422;BME280;61637;47.760;-122.022;2023-02-13T05:02:01;101591.7;;;7.7;unknown
73422;BME280;61637;47.760;-122.022;2023-02-13T05:04:01;101591.7;;;7.7;unknown
73422;BME280;61637;47.760;-122.022;2023-02-13T05:06:01;101591.7;;;7.7;unknown
73422;BME280;61637;47.760;-122.022;2023-02-13T05:08:01;101591.7;;;7.7;unknown
73422;BME280;61637;47.760;-122.022;2023-02-13T05:10:01;101591.7;;;7.7;unknown
73422;BME280;61637;47.760;-122.022;2023-02-13T05:12:01;101591.7;;;7.7;unknown
73422;BME280;61637;47.760;-122.022;2023-02-13T05:14:01;101591.7;;;7.7;unknown
73422;BME280;61637;47.760;-122.022;2023-02-13T05:16:01;101591.7;;;7.6;unknown
73422;BME280;61637;47.760;-122.022;2023-02-13T05:18:01;101591.7;;;7.6;unknown
73422;BME280;61637;47.760;-122.022;2023-02-13T05:20:01;101591.7;;;7.5;unknown
73422;BME280;61637;47.760;-122.022;2023-02-13T05:22:01;101591.7;;;7.4;unknown
73422;BME280;61637;47.760;-122.022;2023-02-13T05:24:01;101591.7;;;7.3;unknown
73422;BME280;61637;47.760;-122.022;2023-02-13T05:26:01;101591.7;;;7.3;unknown
73422;BME280;61637;47.760;-122.022;2023-02-13T05:28:01;101591.7;;;7.3;unknown
73422;BME280;61637;47.760;-122.022;2023-02-13T05:30:01;101591.7;;;7.3;unknown
73422;BME280;61637;47.760;-122.022;2023-02-13T05:32:01;101591.7;;;7.2;unknown
73422;BME280;61637;47.760;-122.022;2023-02-13T05:34:01;101591.7;;;7.2;unknown
73422;BME280;61637;47.760;-122.022;2023-02-13T05:36:01;101591.7;;;7.2;unknown
73422;BME280;61637;47.760;-122.022;2023-02-13T05:38:01;101591.7;;;7.1;unknown
73422;BME280;61637;47.760;-122.022;2023-02-13T05:40:01;101591.7;;;7.1;unknown
73422;BME280;61637;47.760;-122.022;2023-02-13T05:42:01;101591.7;;;7.1;unknown
73422;BME280;61637;47.760;-122.022;2023-02-13T05:44:01;101591.7;;;7.1;unknown
73422;BME280;61637;47.760;-122.022;2023-02-13T05:46:01;101591.7;;;7.2;unknown
73422;BME280;61637;47.760;-122.022;2023-02-13T05:48:01;101591.7;;;7.2;unknown
73422;BME280;61637;47.760;-122.022;2023-02-13T05:50:01;101591.7;;;7.2;unknown
73422;BME280;61637;47.760;-122.022;2023-02-13T05:52:01;101591.7;;;7.3;unknown
73422;BME280;61637;47.760;-122.022;2023-02-13T05:54:01;101591.7;;;7.2;unknown
73422;BME280;61637;47.760;-122.022;2023-02-13T05:56:01;101591.7;;;7.2;unknown
73422;BME280;61637;47.760;-122.022;2023-02-13T05:58:01;101591.7;;;7.3;unknown
73422;BME280;61637;47.760;-122.022;2023-02-13T06:00:01;101591.7;;;7.3;unknown
73422;BME280;61637;47.760;-122.022;2023-02-13T06:02:01;101591.7;;;7.3;unknown
73422;BME280;61637;47.760;-122.022;2023-02-13T06:04:01;101591.7;;;7.3;unknown
73422;BME280;61637;47.760;-122.022;2023-02-13T06:06:01;101591.7;;;7.3;unknown
73422;BME280;61637;47.760;-122.022;2023-02-13T06:08:01;101591.7;;;7.2;unknown
73422;BME280;61637;47.760;-122.022;2023-02-13T06:10:01;101591.7;;;7.2;unknown
73422;BME280;61637;47.760;-122.022;2023-02-13T06:12:01;101591.7;;;7.2;unknown
73422;BME280;61637;47.760;-122.022;2023-02-13T06:14:01;101591.7;;;7.2;unknown
73422;BME280;61637;47.760;-122.022;2023-02-13T06:16:01;101591.7;;;7.2;unknown
73422;BME280;61637;47.760;-122.022;2023-02-13T06:18:01;101591.7;;;7.2;unknown
73422;BME280;61637;47.760;-122.022;2023-02-13T06:20:01;101591.7;;;7.2;unknown
73422;BME280;61637;47.760;-122.022;2023-02-13T06:22:01;101591.7;;;7.2;unknown
73422;BME280;61637;47.760;-122.022;2023-02-13T06:24:01;101591.7;;;7.2;unknown
73422;BME280;61637;47.760;-122.022;2023-02-13T06:26:01;101591.7;;;7.2;unknown
73422;BME280;61637;47.760;-122.022;2023-02-13T06:28:01;101591.7;;;7.2;unknown
73422;BME280;61637;47.760;-122.022;2023-02-13T06:30:01;101591.7;;;7.2;unknown
73422;BME280;61637;47.760;-122.022;2023-02-13T06:32:01;101591.7;;;7.2;unknown
73422;BME280;61637;47.760;-122.022;2023-02-13T06:34:01;101591.7;;;7.3;unknown
73422;BME280;61637;47.760;-122.022;2023-02-13T06:36:01;101591.7;;;7.3;unknown
73422;BME280;61637;47.760;-122.022;2023-02-13T06:38:01;101591.7;;;7.3;unknown
73422;BME280;61637;47.760;-122.022;2023-02-13T06:40:01;101591.7;;;7.3;unknown
73422;BME280;61637;47.760;-122.022;2023-02-13T06:42:01;101591.7;;;7.3;unknown
73422;BME280;61637;47.760;-122.022;2023-02-13T06:44:01;101591.7;;;7.3;unknown
73422;BME280;61637;47.760;-122.022;2023-02-13T06:46:03;101591.7;;;7.3;unknown
73422;BME280;61637;47.760;-122.022;2023-02-13T06:48:01;101591.7;;;7.3;unknown
73422;BME280;61637;47.760;-122.022;2023-02-13T06:50:01;101591.7;;;7.3;unknown
73422;BME280;61637;47.760;-122.022;2023-02-13T06:52:01;101253.06099999999;;;7.3;unknown
73422;BME280;61637;47.760;-122.022;2023-02-13T06:54:01;101253.06099999999;;;7.3;unknown
73422;BME280;61637;47.760;-122.022;2023-02-13T06:56:02;101253.06099999999;;;7.3;unknown
73422;BME280;61637;47.760;-122.022;2023-02-13T06:58:01;101253.06099999999;;;7.3;unknown
73422;BME280;61637;47.760;-122.022;2023-02-13T07:00:01;101253.06099999999;;;7.4;unknown
73422;BME280;61637;47.760;-122.022;2023-02-13T07:02:01;101253.06099999999;;;7.4;unknown
73422;BME280;61637;47.760;-122.022;2023-02-13T07:04:01;101253.06099999999;;;7.4;unknown
73422;BME280;61637;47.760;-122.022;2023-02-13T07:06:01;101253.06099999999;;;7.4;unknown
73422;BME280;61637;47.760;-122.022;2023-02-13T07:08:01;101253.06099999999;;;7.4;unknown
73422;BME280;61637;47.760;-122.022;2023-02-13T07:10:01;101253.06099999999;;;7.4;unknown
73422;BME280;61637;47.760;-122.022;2023-02-13T07:12:01;101253.06099999999;;;7.4;unknown
73422;BME280;61637;47.760;-122.022;2023-02-13T07:14:01;101253.06099999999;;;7.4;unknown
73422;BME280;61637;47.760;-122.022;2023-02-13T07:16:01;101253.06099999999;;;7.4;unknown
73422;BME280;61637;47.760;-122.022;2023-02-13T07:18:01;101253.06099999999;;;7.4;unknown
73422;BME280;61637;47.760;-122.022;2023-02-13T07:20:01;101253.06099999999;;;7.4;unknown
73422;BME280;61637;47.760;-122.022;2023-02-13T07:22:01;101253.06099999999;;;7.5;unknown
73422;BME280;61637;47.760;-122.022;2023-02-13T07:24:01;101253.06099999999;;;7.5;unknown
73422;BME280;61637;47.760;-122.022;2023-02-13T07:26:01;101253.06099999999;;;7.6;unknown
73422;BME280;61637;47.760;-122.022;2023-02-13T07:28:01;101253.06099999999;;;7.6;unknown
73422;BME280;61637;47.760;-122.022;2023-02-13T07:30:01;101253.06099999999;;;7.6;unknown
73422;BME280;61637;47.760;-122.022;2023-02-13T07:32:01;101253.06099999999;;;7.6;unknown
73422;BME280;61637;47.760;-122.022;2023-02-13T07:34:01;101253.06099999999;;;7.6;unknown
73422;BME280;61637;47.760;-122.022;2023-02-13T07:36:01;101253.06099999999;;;7.6;unknown
73422;BME280;61637;47.760;-122.022;2023-02-13T07:38:01;101253.06099999999;;;7.6;unknown
73422;BME280;61637;47.760;-122.022;2023-02-13T07:40:01;101253.06099999999;;;7.6;unknown
73422;BME280;61637;47.760;-122.022;2023-02-13T07:42:01;101253.06099999999;;;7.6;unknown
73422;BME280;61637;47.760;-122.022;2023-02-13T07:44:01;101253.06099999999;;;7.6;unknown
73422;BME280;61637;47.760;-122.022;2023-02-13T07:46:01;101253.06099999999;;;7.6;unknown
73422;BME280;61637;47.760;-122.022;2023-02-13T07:48:01;101253.06099999999;;;7.6;unknown
73422;BME280;61637;47.760;-122.022;2023-02-13T07:50:01;101253.06099999999;;;7.6;unknown
73422;BME280;61637;47.760;-122.022;2023-02-13T07:52:01;101253.06099999999;;;7.6;unknown
73422;BME280;61637;47.760;-122.022;2023-02-13T07:54:01;101253.06099999999;;;7.6;unknown
73422;BME280;61637;47.760;-122.022;2023-02-13T07:56:04;101253.06099999999;;;7.6;unknown
73422;BME280;61637;47.760;-122.022;2023-02-13T07:58:01;101253.06099999999;;;7.6;unknown
73422;BME280;61637;47.760;-122.022;2023-02-13T08:00:01;101253.06099999999;;;7.7;unknown
73422;BME280;61637;47.760;-122.022;2023-02-13T08:02:01;101253.06099999999;;;7.7;unknown
73422;BME280;61637;47.760;-122.022;2023-02-13T08:04:01;101253.06099999999;;;7.7;unknown
73422;BME280;61637;47.760;-122.022;2023-02-13T08:06:01;101253.06099999999;;;7.7;unknown
73422;BME280;61637;47.760;-122.022;2023-02-13T08:08:01;101253.06099999999;;;7.7;unknown
73422;BME280;61637;47.760;-122.022;2023-02-13T08:10:01;101253.06099999999;;;7.7;unknown
73422;BME280;61637;47.760;-122.022;2023-02-13T08:12:01;101253.06099999999;;;7.6;unknown
73422;BME280;61637;47.760;-122.022;2023-02-13T08:14:01;101253.06099999999;;;7.6;unknown
73422;BME280;61637;47.760;-122.022;2023-02-13T08:16:01;101253.06099999999;;;7.6;unknown
73422;BME280;61637;47.760;-122.022;2023-02-13T08:18:01;101253.06099999999;;;7.6;unknown
73422;BME280;61637;47.760;-122.022;2023-02-13T08:20:01;101253.06099999999;;;7.7;unknown
73422;BME280;61637;47.760;-122.022;2023-02-13T08:22:01;101253.06099999999;;;7.6;unknown
73422;BME280;61637;47.760;-122.022;2023-02-13T08:24:01;101253.06099999999;;;7.7;unknown
73422;BME280;61637;47.760;-122.022;2023-02-13T08:26:01;101253.06099999999;;;7.7;unknown
73422;BME280;61637;47.760;-122.022;2023-02-13T08:28:01;101253.06099999999;;;7.7;unknown
73422;BME280;61637;47.760;-122.022;2023-02-13T08:30:01;101253.06099999999;;;7.7;unknown
73422;BME280;61637;47.760;-122.022;2023-02-13T08:32:01;101253.06099999999;;;7.6;unknown
73422;BME280;61637;47.760;-122.022;2023-02-13T08:34:01;101253.06099999999;;;7.7;unknown
73422;BME280;61637;47.760;-122.022;2023-02-13T08:36:02;101253.06099999999;;;7.6;unknown
73422;BME280;61637;47.760;-122.022;2023-02-13T08:38:01;101253.06099999999;;;7.6;unknown
73422;BME280;61637;47.760;-122.022;2023-02-13T08:40:01;101253.06099999999;;;7.6;unknown
73422;BME280;61637;47.760;-122.022;2023-02-13T08:42:01;101253.06099999999;;;7.6;unknown
73422;BME280;61637;47.760;-122.022;2023-02-13T08:44:01;101253.06099999999;;;7.6;unknown
73422;BME280;61637;47.760;-122.022;2023-02-13T08:46:01;101253.06099999999;;;7.6;unknown
73422;BME280;61637;47.760;-122.022;2023-02-13T08:48:01;101253.06099999999;;;7.6;unknown
73422;BME280;61637;47.760;-122.022;2023-02-13T08:50:01;101253.06099999999;;;7.6;unknown
73422;BME280;61637;47.760;-122.022;2023-02-13T08:52:01;101253.06099999999;;;7.6;unknown
73422;BME280;61637;47.760;-122.022;2023-02-13T08:54:01;101253.06099999999;;;7.6;unknown
73422;BME280;61637;47.760;-122.022;2023-02-13T08:56:01;101253.06099999999;;;7.5;unknown
73422;BME280;61637;47.760;-122.022;2023-02-13T08:58:01;101253.06099999999;;;7.5;unknown
73422;BME280;61637;47.760;-122.022;2023-02-13T09:00:01;101253.06099999999;;;7.5;unknown
73422;BME280;61637;47.760;-122.022;2023-02-13T09:02:01;101253.06099999999;;;7.5;unknown
73422;BME280;61637;47.760;-122.022;2023-02-13T09:04:01;101253.06099999999;;;7.4;unknown
73422;BME280;61637;47.760;-122.022;2023-02-13T09:06:01;101253.06099999999;;;7.5;unknown
73422;BME280;61637;47.760;-122.022;2023-02-13T09:08:01;101253.06099999999;;;7.4;unknown
73422;BME280;61637;47.760;-122.022;2023-02-13T09:10:01;101253.06099999999;;;7.4;unknown
73422;BME280;61637;47.760;-122.022;2023-02-13T09:12:01;101253.06099999999;;;7.4;unknown
73422;BME280;61637;47.760;-122.022;2023-02-13T09:14:01;101253.06099999999;;;7.4;unknown
73422;BME280;61637;47.760;-122.022;2023-02-13T09:16:01;101253.06099999999;;;7.4;unknown
73422;BME280;61637;47.760;-122.022;2023-02-13T09:18:01;101253.06099999999;;;7.4;unknown
73422;BME280;61637;47.760;-122.022;2023-02-13T09:20:01;101253.06099999999;;;7.4;unknown
73422;BME280;61637;47.760;-122.022;2023-02-13T09:22:01;101253.06099999999;;;7.4;unknown
73422;BME280;61637;47.760;-122.022;2023-02-13T09:24:01;101253.06099999999;;;7.4;unknown
73422;BME280;61637;47.760;-122.022;2023-02-13T09:26:01;101253.06099999999;;;7.4;unknown
73422;BME280;61637;47.760;-122.022;2023-02-13T09:28:01;101253.06099999999;;;7.4;unknown
73422;BME280;61637;47.760;-122.022;2023-02-13T09:30:01;101253.06099999999;;;7.4;unknown
73422;BME280;61637;47.760;-122.022;2023-02-13T09:32:01;101253.06099999999;;;7.4;unknown
73422;BME280;61637;47.760;-122.022;2023-02-13T09:34:01;101253.06099999999;;;7.4;unknown
73422;BME280;61637;47.760;-122.022;2023-02-13T09:36:03;101253.06099999999;;;7.4;unknown
73422;BME280;61637;47.760;-122.022;2023-02-13T09:38:01;101253.06099999999;;;7.4;unknown
73422;BME280;61637;47.760;-122.022;2023-02-13T09:40:01;101253.06099999999;;;7.4;unknown
73422;BME280;61637;47.760;-122.022;2023-02-13T09:42:01;101253.06099999999;;;7.4;unknown
73422;BME280;61637;47.760;-122.022;2023-02-13T09:44:01;101253.06099999999;;;7.4;unknown
73422;BME280;61637;47.760;-122.022;2023-02-13T09:46:03;101253.06099999999;;;7.4;unknown
73422;BME280;61637;47.760;-122.022;2023-02-13T09:48:01;101253.06099999999;;;7.4;unknown
73422;BME280;61637;47.760;-122.022;2023-02-13T09:50:02;101253.06099999999;;;7.3;unknown